PORT of ABERDEEN

Country: United Kingdom Country: United Kingdom [GB]
Latitude / Longitude: 57.14255° / -2.0791805° Show on Map
Local Time:  [UTC +1]
UN/LOCODE: GBABD
Vessels in Port: 31
Expected Arrivals: 14

Recent Arrivals & Departures


Vessel's Name
Arrival (UTC)
Arrival (LT)
Departure (UTC)
Departure (LT)
Vessel Type: Tugs, Pilots etc  VOS GUARDIAN 2014-08-22 00:22:00 2014-08-22 01:22:00
Vessel Type: Yachts & Others  SEA SHEPHERD 2014-08-22 00:20:00 2014-08-22 01:20:00
Vessel Type: Yachts & Others  SEA SHEPHERD 2014-08-21 22:36:00 2014-08-21 23:36:00 2014-08-21 23:56:00 2014-08-22 00:56:00
Vessel Type: Tugs, Pilots etc  GRAMPIAN HUNTER 2014-08-21 07:44:00 2014-08-21 08:44:00 2014-08-21 23:52:00 2014-08-22 00:52:00
Vessel Type: Cargo Vessels  NORMAND FLIPPER 2014-08-21 22:40:00 2014-08-21 23:40:00
Vessel Type: Yachts & Others  SEA SHEPHERD 2014-08-21 20:03:00 2014-08-21 21:03:00 2014-08-21 22:18:00 2014-08-21 23:18:00
Vessel Type: Yachts & Others  UP CORAL 2014-08-20 11:24:00 2014-08-20 12:24:00 2014-08-21 22:03:00 2014-08-21 23:03:00
HIGHLAND VANGUARD 2014-08-21 12:15:00 2014-08-21 13:15:00 2014-08-21 21:11:00 2014-08-21 22:11:00
Vessel Type: Yachts & Others  VOS SENTINEL 2014-08-20 01:31:00 2014-08-20 02:31:00 2014-08-21 20:37:00 2014-08-21 21:37:00
Vessel Type: Cargo Vessels  JEVENAU 2014-08-21 02:33:00 2014-08-21 03:33:00 2014-08-21 20:32:00 2014-08-21 21:32:00

Expected Arrivals


Vessel's Name
Scheduled Arrival (UTC)
Scheduled Arrival (LT)
Estimated Arrival (UTC)
Estimated Arrival (LT)
Vessel Type: Cargo Vessels  OLYMPIC PRINCESS 2014-08-22 02:00:00 2014-08-22 03:00:00 2014-08-22 00:58:00 2014-08-22 01:58:00
Vessel Type: Yachts & Others  OLYMPIC ZEUS 2014-08-22 02:30:00 2014-08-22 03:30:00 2014-08-22 00:06:00 2014-08-22 01:06:00
Vessel Type: Cargo Vessels  REM PROVIDER 2014-08-22 03:00:00 2014-08-22 04:00:00 2014-08-22 01:52:00 2014-08-22 02:52:00
VOS WESTWIND 2014-08-22 06:00:00 2014-08-22 07:00:00 2014-08-21 20:39:00 2014-08-21 21:39:00
HROSSEY 2014-08-22 07:00:00 2014-08-22 08:00:00 2014-08-22 04:20:00 2014-08-22 05:20:00
Vessel Type: Cargo Vessels  FAR SERVICE 2014-08-22 07:00:00 2014-08-22 08:00:00
Vessel Type: Cargo Vessels  GRAMPIAN TALISMAN 2014-08-22 07:30:00 2014-08-22 08:30:00 2014-08-22 05:23:00 2014-08-22 06:23:00
SUPERIORITY 2014-08-22 07:30:00 2014-08-22 08:30:00 2014-08-22 09:18:00 2014-08-22 10:18:00
Vessel Type: Yachts & Others  ENEA 2014-08-22 14:00:00 2014-08-22 15:00:00 2014-08-22 11:36:00 2014-08-22 12:36:00
Vessel Type: Yachts & Others  NORTH TRUCK 2014-08-22 19:00:00 2014-08-22 20:00:00 2014-08-22 15:22:00 2014-08-22 16:22:00

Wind Forecast


    
Time (UTC)
Speed
Direction
Temperature
2014-08-22 00:00:00 18 knots 359° 11°C
2014-08-22 03:00:00 17 knots 350° 11°C
2014-08-22 06:00:00 17 knots 348° 11°C
2014-08-22 09:00:00 17 knots 350° 12°C
2014-08-22 12:00:00 15 knots 349° 12°C
2014-08-22 15:00:00 13 knots 345° 13°C
2014-08-22 18:00:00 11 knots 340° 13°C
2014-08-22 21:00:00 9 knots 323° 11°C
2014-08-23 00:00:00 11 knots 346° 11°C
2014-08-23 03:00:00 12 knots 342° 11°C
2014-08-23 06:00:00 16 knots 351° 11°C
2014-08-23 09:00:00 17 knots 351° 12°C
2014-08-23 12:00:00 16 knots 348° 12°C
2014-08-23 15:00:00 17 knots 341° 12°C
2014-08-23 18:00:00 18 knots 340° 12°C
2014-08-23 21:00:00 19 knots 329° 10°C
2014-08-24 00:00:00 18 knots 330° 9°C